Hector International Airport
KFAR : now visible

Airfield :











YOU CAN JOIN US ON...

 
LOGIN :

Register | Disclaimer

   EN    FR    IT 

 









Legend :    VFR   Marginal VFR   IFR   Intensive IFR   Very Intensive IFR
Visi :
Ceiling :
>= 8 km
>= 3000ft
5 to 8 km
1000 to 3000 ft
1500m to 5 km
500 to 1000 ft
800 to 1500m
200 to 500 ft
< 800m
< 200 ft
Symbols :   Thunderstorms  Fog  Heavy snow  Heavy precipitations  Wind > 20 kt







- Airport Elevation : 902 ft
- IATA code : FAR


KFAR - Hector International

CURRENT METAR :
  • 210153Z 36010KT 10SM CLR 14/11 A2974 RMK AO2 SLP073 T01390111

EXPIRED METARs :
  • 210053Z 01013KT 10SM CLR 16/11 A2971 RMK AO2 SLP063 T01560111
  • 202353Z 01014KT 10SM CLR 17/11 A2969 RMK AO2 SLP056 60000 T01670106 10200 20167 53010
  • 202253Z 02013KT 10SM CLR 18/11 A2967 RMK AO2 RAB2154E05 SLP049 P0000 T01780111

TAF KFAR
Valid from the 21 at 00:00 until the 22 at 00:00 UTC


202327Z 2100/2124 02012KT P6SM BKN150
FM210900 02014KT P6SM OVC100
FM211100 03013KT P6SM OVC050
KZMP FIR / North America



MET'MAP, your aeronautical weather chart ! - Copyright ORBIFLY December 2007 - Disclaimer

ORBIFLY MET'MAP TEAM :

Programming & Development : Alexandra Zaïnal
Concept & Development : Baudouin d'Aumeries
Co-Development & Prog : Marc-Olivier Méhu
Technical & hardware support : Manuel Goepfert

Contact : metmap@orbifly.com




SOURCES & CREDITS :

   NOAA       Earth
Advisory